createdAt,value
2017-12-19T00:02:04.169Z,102343.73
2017-12-19T00:04:33.474Z,102348.81
2017-12-19T00:07:02.742Z,102349.66
2017-12-19T00:09:31.968Z,102355.59
2017-12-19T00:12:01.263Z,102359.35
2017-12-19T00:14:31.072Z,102350.47
2017-12-19T00:17:00.987Z,102352.17
2017-12-19T00:19:30.827Z,102350.94
2017-12-19T00:22:00.391Z,102356.00
2017-12-19T00:24:29.931Z,102363.62
2017-12-19T00:27:19.372Z,102362.80
2017-12-19T00:30:08.095Z,102350.12
2017-12-19T00:32:49.272Z,102357.72
2017-12-19T00:35:29.398Z,102369.19
2017-12-19T00:38:06.984Z,102371.25
2017-12-19T00:40:43.811Z,102377.23
2017-12-19T00:43:16.121Z,102364.12
2017-12-19T00:45:52.079Z,102365.40
2017-12-19T00:48:23.988Z,102356.52
2017-12-19T00:50:55.504Z,102357.80
2017-12-19T00:53:26.995Z,102361.20
2017-12-19T00:55:58.012Z,102360.78
2017-12-19T00:58:27.953Z,102361.63
2017-12-19T01:01:04.726Z,102367.95
2017-12-19T01:03:34.796Z,102373.88
2017-12-19T01:06:04.714Z,102370.50
2017-12-19T01:08:34.575Z,102374.73
2017-12-19T01:11:04.197Z,102377.70
2017-12-19T01:13:33.824Z,102376.02
2017-12-19T01:16:03.616Z,102376.02
2017-12-19T01:18:33.415Z,102374.77
2017-12-19T01:21:03.274Z,102374.34
2017-12-19T01:23:33.061Z,102364.23
2017-12-19T01:26:02.902Z,102359.16
2017-12-19T01:28:32.719Z,102364.62
2017-12-19T01:31:02.563Z,102371.01
2017-12-19T01:33:32.337Z,102376.53
2017-12-19T01:36:02.171Z,102389.66
2017-12-19T01:38:31.964Z,102396.84
2017-12-19T01:41:01.807Z,102391.75
2017-12-19T01:43:31.611Z,102391.34
2017-12-19T01:46:01.427Z,102387.12
2017-12-19T01:48:31.278Z,102390.50
2017-12-19T01:51:01.075Z,102401.94
2017-12-19T01:53:30.935Z,102392.20
2017-12-19T01:56:00.827Z,102394.38
2017-12-19T01:58:30.615Z,102385.44
2017-12-19T02:01:00.435Z,102377.47
2017-12-19T02:03:30.940Z,102385.88
2017-12-19T02:06:01.200Z,102390.58
2017-12-19T02:08:31.070Z,102398.18
2017-12-19T02:11:00.905Z,102388.05
2017-12-19T02:13:30.756Z,102380.38
2017-12-19T02:16:00.274Z,102383.41
2017-12-19T02:18:29.847Z,102382.56
2017-12-19T02:20:59.419Z,102376.66
2017-12-19T02:23:28.995Z,102377.50
2017-12-19T02:25:58.590Z,102386.81
2017-12-19T02:28:27.944Z,102383.01
2017-12-19T02:30:57.543Z,102391.05
2017-12-19T02:33:27.164Z,102397.41
2017-12-19T02:35:56.695Z,102397.81
2017-12-19T02:38:26.400Z,102399.94
2017-12-19T02:40:55.934Z,102394.86
2017-12-19T02:43:25.498Z,102392.31
2017-12-19T02:45:55.700Z,102389.36
2017-12-19T02:48:25.268Z,102387.26
2017-12-19T02:50:54.968Z,102396.98
2017-12-19T02:53:24.491Z,102392.76
2017-12-19T02:55:54.075Z,102401.22
2017-12-19T02:58:23.647Z,102406.77
2017-12-19T03:00:52.980Z,102397.84
2017-12-19T03:03:22.363Z,102400.41
2017-12-19T03:05:52.240Z,102403.81
2017-12-19T03:08:21.876Z,102402.97
2017-12-19T03:10:51.380Z,102402.55
2017-12-19T03:13:20.966Z,102408.91
2017-12-19T03:15:50.538Z,102408.06
2017-12-19T03:18:19.921Z,102413.98
2017-12-19T03:20:49.490Z,102409.75
2017-12-19T03:23:19.082Z,102411.47
2017-12-19T03:25:48.961Z,102411.88
2017-12-19T03:28:18.552Z,102413.59
2017-12-19T03:30:48.133Z,102416.13
2017-12-19T03:33:17.671Z,102412.73
2017-12-19T03:35:47.272Z,102419.09
2017-12-19T03:38:16.565Z,102424.59
2017-12-19T03:40:46.169Z,102419.95
2017-12-19T03:43:15.739Z,102416.15
2017-12-19T03:45:46.279Z,102422.50
2017-12-19T03:48:15.838Z,102424.66
2017-12-19T03:50:45.509Z,102423.37
2017-12-19T03:53:15.108Z,102424.23
2017-12-19T03:55:48.904Z,102427.20
2017-12-19T03:58:18.445Z,102429.75
2017-12-19T04:00:48.014Z,102423.41
2017-12-19T04:03:17.623Z,102421.70
2017-12-19T04:05:48.983Z,102417.06
2017-12-19T04:08:18.583Z,102428.92
2017-12-19T04:10:48.106Z,102430.61
2017-12-19T04:13:18.030Z,102437.83
2017-12-19T04:15:48.126Z,102439.09
2017-12-19T04:18:17.684Z,102436.56
2017-12-19T04:20:47.252Z,102425.98
2017-12-19T04:23:16.810Z,102418.41
2017-12-19T04:25:47.934Z,102414.14
2017-12-19T04:28:17.498Z,102432.80
2017-12-19T04:30:47.355Z,102438.26
2017-12-19T04:33:16.903Z,102444.66
2017-12-19T04:35:52.073Z,102442.55
2017-12-19T04:38:21.642Z,102451.43
2017-12-19T04:40:51.216Z,102452.30
2017-12-19T04:43:20.783Z,102447.64
2017-12-19T04:45:50.342Z,102441.72
2017-12-19T04:48:19.914Z,102440.88
2017-12-19T04:50:49.442Z,102438.75
2017-12-19T04:53:18.978Z,102449.77
2017-12-19T04:55:48.882Z,102446.80
2017-12-19T04:58:18.787Z,102441.31
2017-12-19T05:00:48.408Z,102445.55
2017-12-19T05:03:18.307Z,102440.47
2017-12-19T05:05:49.775Z,102434.56
2017-12-19T05:08:20.829Z,102435.40
2017-12-19T05:10:54.325Z,102445.14
2017-12-19T05:13:29.875Z,102438.37
2017-12-19T05:15:59.946Z,102448.58
2017-12-19T05:18:38.567Z,102446.84
2017-12-19T05:21:10.323Z,102437.57
2017-12-19T05:23:40.200Z,102437.14
2017-12-19T05:26:10.093Z,102440.95
2017-12-19T05:28:44.021Z,102435.03
2017-12-19T05:31:14.449Z,102432.92
2017-12-19T05:33:44.295Z,102429.12
2017-12-19T05:36:13.842Z,102443.93
2017-12-19T05:38:43.450Z,102446.91
2017-12-19T05:41:13.498Z,102443.95
2017-12-19T05:43:43.034Z,102447.34
2017-12-19T05:46:12.947Z,102448.19
2017-12-19T05:48:42.843Z,102450.31
2017-12-19T05:51:12.695Z,102447.77
2017-12-19T05:53:42.259Z,102456.67
2017-12-19T05:56:12.103Z,102451.17
2017-12-19T05:58:41.683Z,102436.78
2017-12-19T06:01:11.219Z,102442.33
2017-12-19T06:03:41.056Z,102446.09
2017-12-19T06:06:10.656Z,102443.59
2017-12-19T06:08:40.214Z,102446.98
2017-12-19T06:11:09.791Z,102452.91
2017-12-19T06:13:39.664Z,102453.77
2017-12-19T06:16:09.235Z,102454.63
2017-12-19T06:18:38.782Z,102452.94
2017-12-19T06:21:08.326Z,102452.52
2017-12-19T06:23:37.915Z,102453.78
2017-12-19T06:26:07.451Z,102458.02
2017-12-19T06:28:37.364Z,102450.83
2017-12-19T06:31:06.907Z,102452.09
2017-12-19T06:33:36.471Z,102455.50
2017-12-19T06:36:06.071Z,102455.50
2017-12-19T06:38:35.612Z,102445.33
2017-12-19T06:41:05.184Z,102451.70
2017-12-19T06:43:34.751Z,102451.27
2017-12-19T06:46:04.607Z,102456.78
2017-12-19T06:48:34.132Z,102460.59
2017-12-19T06:51:03.705Z,102473.72
2017-12-19T06:53:33.657Z,102472.06
2017-12-19T06:56:03.571Z,102469.10
2017-12-19T06:58:33.110Z,102475.03
2017-12-19T07:01:02.694Z,102474.19
2017-12-19T07:03:32.239Z,102475.04
2017-12-19T07:06:01.811Z,102468.27
2017-12-19T07:08:31.366Z,102468.28
2017-12-19T07:11:01.213Z,102468.28
2017-12-19T07:13:30.813Z,102467.02
2017-12-19T07:16:00.727Z,102471.67
2017-12-19T07:18:30.285Z,102475.91
2017-12-19T07:20:59.848Z,102474.64
2017-12-19T07:23:29.744Z,102476.34
2017-12-19T07:25:59.579Z,102481.00
2017-12-19T07:28:29.465Z,102488.21
2017-12-19T07:30:59.017Z,102494.98
2017-12-19T07:33:28.587Z,102496.27
2017-12-19T07:35:58.457Z,102497.95
2017-12-19T07:38:28.043Z,102501.39
2017-12-19T07:40:57.890Z,102509.87
2017-12-19T07:43:27.456Z,102514.95
2017-12-19T07:45:56.983Z,102518.77
2017-12-19T07:48:26.863Z,102519.62
2017-12-19T07:50:56.658Z,102515.39
2017-12-19T07:53:26.485Z,102509.90
2017-12-19T07:55:56.347Z,102514.14
2017-12-19T07:58:26.231Z,102514.98
2017-12-19T08:00:56.126Z,102520.08
2017-12-19T08:03:25.736Z,102532.79
2017-12-19T08:05:55.624Z,102525.20
2017-12-19T08:08:25.459Z,102518.86
2017-12-19T08:10:57.911Z,102521.83
2017-12-19T08:13:27.734Z,102521.84
2017-12-19T08:15:57.579Z,102526.09
2017-12-19T08:18:27.168Z,102533.30
2017-12-19T08:20:57.026Z,102530.33
2017-12-19T08:23:26.870Z,102537.12
2017-12-19T08:25:56.704Z,102535.44
2017-12-19T08:28:26.539Z,102552.84
2017-12-19T08:30:56.377Z,102548.61
2017-12-19T08:33:26.214Z,102549.47
2017-12-19T08:35:55.810Z,102557.52
2017-12-19T08:38:25.591Z,102550.33
2017-12-19T08:40:55.443Z,102559.66
2017-12-19T08:43:25.275Z,102550.77
2017-12-19T08:45:54.824Z,102547.81
2017-12-19T08:48:24.613Z,102553.37
2017-12-19T08:50:54.409Z,102553.80
2017-12-19T08:53:24.248Z,102569.06
2017-12-19T08:55:54.037Z,102571.61
2017-12-19T08:58:23.902Z,102576.70
2017-12-19T09:00:53.678Z,102580.95
2017-12-19T09:03:23.523Z,102589.02
2017-12-19T09:05:53.317Z,102588.17
2017-12-19T09:08:23.109Z,102595.00
2017-12-19T09:10:52.956Z,102597.13
2017-12-19T09:13:22.783Z,102600.52
2017-12-19T09:15:52.592Z,102596.30
2017-12-19T09:18:22.391Z,102599.70
2017-12-19T09:20:52.232Z,102605.22
2017-12-19T09:23:22.023Z,102604.80
2017-12-19T09:25:51.814Z,102592.98
2017-12-19T09:28:21.645Z,102595.11
2017-12-19T09:30:51.492Z,102591.73
2017-12-19T09:33:21.266Z,102587.92
2017-12-19T09:35:51.071Z,102597.68
2017-12-19T09:38:20.897Z,102599.39
2017-12-19T09:40:50.726Z,102598.15
2017-12-19T09:43:20.571Z,102604.52
2017-12-19T09:45:50.370Z,102606.23
2017-12-19T09:48:20.156Z,102610.05
2017-12-19T09:50:50.043Z,102604.13
2017-12-19T09:53:19.879Z,102608.80
2017-12-19T09:55:49.716Z,102611.77
2017-12-19T09:58:22.255Z,102616.48
2017-12-19T10:00:52.206Z,102609.28
2017-12-19T10:03:21.995Z,102611.41
2017-12-19T10:05:51.805Z,102612.69
2017-12-19T10:08:21.620Z,102602.94
2017-12-19T10:10:51.413Z,102596.63
2017-12-19T10:13:21.245Z,102605.97
2017-12-19T10:15:51.039Z,102608.09
2017-12-19T10:18:20.828Z,102600.05
2017-12-19T10:20:50.376Z,102601.33
2017-12-19T10:23:20.010Z,102596.66
2017-12-19T10:25:49.368Z,102598.41
2017-12-19T10:28:18.934Z,102603.50
2017-12-19T10:30:48.546Z,102610.73
2017-12-19T10:33:18.443Z,102604.80
2017-12-19T10:35:48.279Z,102611.59
2017-12-19T10:38:18.117Z,102601.45
2017-12-19T10:40:47.706Z,102603.15
2017-12-19T10:43:17.321Z,102594.24
2017-12-19T10:45:47.171Z,102590.43
2017-12-19T10:48:17.015Z,102589.59
2017-12-19T10:50:46.799Z,102593.41
2017-12-19T10:53:16.581Z,102590.48
2017-12-19T10:55:46.402Z,102587.09
2017-12-19T10:58:16.203Z,102596.86
2017-12-19T11:00:45.744Z,102596.44
2017-12-19T11:03:15.540Z,102596.87
2017-12-19T11:05:45.407Z,102592.20
2017-12-19T11:08:16.962Z,102588.00
2017-12-19T11:10:46.795Z,102592.24
2017-12-19T11:13:16.614Z,102591.40
2017-12-19T11:15:46.460Z,102585.89
2017-12-19T11:18:16.270Z,102589.29
2017-12-19T11:20:46.114Z,102584.62
2017-12-19T11:23:15.483Z,102581.23
2017-12-19T11:25:44.857Z,102573.63
2017-12-19T11:28:14.254Z,102578.72
2017-12-19T11:30:43.655Z,102573.63
2017-12-19T11:33:12.791Z,102574.06
2017-12-19T11:35:44.903Z,102571.09
2017-12-19T11:38:14.324Z,102578.77
2017-12-19T11:40:44.012Z,102582.16
2017-12-19T11:43:13.927Z,102584.29
2017-12-19T11:45:45.591Z,102578.77
2017-12-19T11:48:15.415Z,102577.08
2017-12-19T11:50:45.271Z,102587.27
2017-12-19T11:53:15.076Z,102577.96
2017-12-19T11:55:45.847Z,102577.54
2017-12-19T11:58:15.681Z,102570.74
2017-12-19T12:00:45.588Z,102566.92
2017-12-19T12:03:15.397Z,102565.22
2017-12-19T12:05:45.634Z,102558.01
2017-12-19T12:08:15.451Z,102557.59
2017-12-19T12:10:45.363Z,102547.39
2017-12-19T12:13:15.255Z,102544.87
2017-12-19T12:15:45.528Z,102541.91
2017-12-19T12:18:15.603Z,102546.15
2017-12-19T12:20:45.427Z,102545.73
2017-12-19T12:23:15.237Z,102542.33
2017-12-19T12:25:46.059Z,102537.66
2017-12-19T12:28:15.918Z,102539.77
2017-12-19T12:30:45.438Z,102536.84
2017-12-19T12:33:15.302Z,102540.23
2017-12-19T12:35:45.443Z,102531.73
2017-12-19T12:38:15.548Z,102532.16
2017-12-19T12:40:45.104Z,102536.41
2017-12-19T12:43:14.947Z,102536.41
2017-12-19T12:45:44.834Z,102541.08
2017-12-19T12:48:14.635Z,102534.70
2017-12-19T12:50:44.486Z,102540.65
2017-12-19T12:53:14.259Z,102538.53
2017-12-19T12:55:45.606Z,102547.02
2017-12-19T12:58:15.419Z,102544.47
2017-12-19T13:00:44.765Z,102539.83
2017-12-19T13:03:14.102Z,102545.35
2017-12-19T13:05:48.171Z,102542.80
2017-12-19T13:08:18.112Z,102544.92
2017-12-19T13:10:47.998Z,102542.37
2017-12-19T13:13:17.862Z,102542.37
2017-12-19T13:15:47.520Z,102543.65
2017-12-19T13:18:17.148Z,102542.80
2017-12-19T13:20:46.973Z,102547.05
2017-12-19T13:23:16.836Z,102544.50
2017-12-19T13:25:46.631Z,102543.64
2017-12-19T13:28:16.485Z,102538.97
2017-12-19T13:30:46.332Z,102541.52
2017-12-19T13:33:16.150Z,102548.31
2017-12-19T13:35:45.947Z,102544.91
2017-12-19T13:38:15.803Z,102548.31
2017-12-19T13:40:45.434Z,102551.32
2017-12-19T13:43:15.310Z,102554.72
2017-12-19T13:45:44.795Z,102552.59
2017-12-19T13:48:14.684Z,102562.80
2017-12-19T13:50:44.519Z,102560.66
2017-12-19T13:53:14.375Z,102559.82
2017-12-19T13:55:44.755Z,102564.06
2017-12-19T13:58:14.320Z,102564.49
2017-12-19T14:00:43.962Z,102559.39
2017-12-19T14:03:13.823Z,102558.97
2017-12-19T14:05:46.836Z,102566.62
2017-12-19T14:08:16.435Z,102558.97
2017-12-19T14:10:46.267Z,102558.54
2017-12-19T14:13:16.079Z,102570.02
2017-12-19T14:15:45.747Z,102564.49
2017-12-19T14:18:15.588Z,102564.06
2017-12-19T14:20:45.378Z,102570.86
2017-12-19T14:23:15.232Z,102571.29
2017-12-19T14:25:45.639Z,102568.73
2017-12-19T14:28:15.474Z,102575.53
2017-12-19T14:30:45.372Z,102573.42
2017-12-19T14:33:15.159Z,102570.86
2017-12-19T14:35:45.598Z,102575.11
2017-12-19T14:38:15.485Z,102586.59
2017-12-19T14:40:45.253Z,102587.44
2017-12-19T14:43:15.089Z,102585.31
2017-12-19T14:45:44.980Z,102579.36
2017-12-19T14:48:14.810Z,102578.52
2017-12-19T14:50:44.656Z,102575.53
2017-12-19T14:53:14.544Z,102581.06
2017-12-19T14:55:45.986Z,102586.59
2017-12-19T14:58:15.789Z,102583.61
2017-12-19T15:00:45.423Z,102580.64
2017-12-19T15:03:15.229Z,102584.89
2017-12-19T15:05:48.382Z,102584.89
2017-12-19T15:08:18.173Z,102589.56
2017-12-19T15:10:48.007Z,102589.56
2017-12-19T15:13:17.830Z,102595.09
2017-12-19T15:15:47.629Z,102591.69
2017-12-19T15:18:17.466Z,102596.36
2017-12-19T15:20:47.339Z,102596.36
2017-12-19T15:23:20.007Z,102592.11
2017-12-19T15:25:49.812Z,102590.41
2017-12-19T15:28:19.652Z,102591.26
2017-12-19T15:30:49.432Z,102593.81
2017-12-19T15:33:19.296Z,102587.86
2017-12-19T15:35:49.138Z,102587.86
2017-12-19T15:38:19.261Z,102587.86
2017-12-19T15:40:49.084Z,102589.56
2017-12-19T15:43:18.894Z,102587.02
2017-12-19T15:45:48.755Z,102580.64
2017-12-19T15:48:18.335Z,102578.09
2017-12-19T15:50:48.229Z,102565.31
2017-12-19T15:53:18.061Z,102567.86
2017-12-19T15:55:47.893Z,102569.14
2017-12-19T15:58:17.719Z,102570.41
2017-12-19T16:00:47.571Z,102573.38
2017-12-19T16:03:17.387Z,102569.14
2017-12-19T16:05:47.004Z,102570.84
2017-12-19T16:08:16.854Z,102574.23
2017-12-19T16:13:44.241Z,102575.51
2017-12-19T16:16:15.801Z,102578.48
2017-12-19T16:18:45.655Z,102573.81
2017-12-19T16:21:15.449Z,102572.97
2017-12-19T16:23:45.307Z,102572.97
2017-12-19T16:26:16.193Z,102578.48
2017-12-19T16:28:46.074Z,102582.73
2017-12-19T16:31:15.716Z,102583.16
2017-12-19T16:33:45.307Z,102581.89
2017-12-19T16:36:15.106Z,102580.61
2017-12-19T16:38:52.010Z,102581.46
2017-12-19T16:41:22.085Z,102576.36
2017-12-19T16:43:52.005Z,102582.73
2017-12-19T16:46:22.279Z,102585.28
2017-12-19T16:48:52.079Z,102589.53
2017-12-19T16:51:22.446Z,102593.36
2017-12-19T16:53:54.600Z,102589.53
2017-12-19T16:56:24.508Z,102590.38
2017-12-19T16:58:55.351Z,102593.78
2017-12-19T17:01:34.400Z,102598.03
2017-12-19T17:04:15.898Z,102597.61
2017-12-19T17:06:55.666Z,102596.76
2017-12-19T17:09:37.760Z,102596.33
2017-12-19T17:12:21.577Z,102589.96
2017-12-19T17:15:01.320Z,102589.53
2017-12-19T17:17:40.218Z,102595.05
2017-12-19T17:20:20.124Z,102595.91
2017-12-19T17:23:04.147Z,102595.91
2017-12-19T17:25:45.917Z,102608.66
2017-12-19T17:28:39.474Z,102600.58
2017-12-19T17:31:24.855Z,102612.48
2017-12-19T17:34:12.196Z,102612.91
2017-12-19T17:36:59.978Z,102603.13
2017-12-19T17:39:49.778Z,102606.10
2017-12-19T17:42:29.788Z,102605.68
2017-12-19T17:45:19.287Z,102606.53
2017-12-19T17:48:03.383Z,102604.83
2017-12-19T17:50:45.757Z,102607.80
2017-12-19T17:53:30.297Z,102606.95
2017-12-19T17:56:13.980Z,102614.17
2017-12-19T17:58:55.567Z,102611.20
2017-12-19T18:01:40.483Z,102608.66
2017-12-19T18:04:19.914Z,102596.76
2017-12-19T18:07:00.653Z,102593.36
2017-12-19T18:09:43.715Z,102591.66
2017-12-19T18:12:25.904Z,102585.71
2017-12-19T18:15:07.959Z,102586.95
2017-12-19T18:17:47.548Z,102586.56
2017-12-19T18:20:20.857Z,102585.71
2017-12-19T18:23:01.185Z,102586.98
2017-12-19T18:25:38.339Z,102578.06
2017-12-19T18:28:13.790Z,102579.34
2017-12-19T18:30:50.053Z,102582.31
2017-12-19T18:33:24.061Z,102588.26
2017-12-19T18:35:54.368Z,102584.44
2017-12-19T18:38:25.554Z,102589.96
2017-12-19T18:41:01.868Z,102590.81
2017-12-19T18:43:39.903Z,102591.66
2017-12-19T18:46:11.692Z,102597.61
2017-12-19T18:48:44.802Z,102592.51
2017-12-19T18:51:20.388Z,102593.78
2017-12-19T18:53:58.201Z,102589.11
2017-12-19T18:56:37.054Z,102587.84
2017-12-19T18:59:20.864Z,102584.44
2017-12-19T19:02:02.847Z,102579.77
2017-12-19T19:04:45.981Z,102585.71
2017-12-19T19:07:20.536Z,102583.59
2017-12-19T19:09:59.839Z,102580.19
2017-12-19T19:15:35.050Z,102590.81
2017-12-19T19:18:06.545Z,102582.73
2017-12-19T19:20:37.757Z,102583.59
2017-12-19T19:23:13.598Z,102585.26
2017-12-19T19:25:56.436Z,102589.50
2017-12-19T19:28:40.512Z,102584.86
2017-12-19T19:31:27.296Z,102580.58
2017-12-19T19:34:03.695Z,102576.34
2017-12-19T19:36:45.948Z,102589.50
2017-12-19T19:39:28.132Z,102591.20
2017-12-19T19:42:06.947Z,102589.50
2017-12-19T19:44:41.862Z,102583.13
2017-12-19T19:47:15.472Z,102583.55
2017-12-19T19:49:54.759Z,102586.95
2017-12-19T19:52:40.979Z,102581.01
2017-12-19T19:55:16.667Z,102586.11
2017-12-19T19:57:56.058Z,102588.66
2017-12-19T20:00:30.334Z,102595.87
2017-12-19T20:03:10.200Z,102599.70
2017-12-19T20:05:48.551Z,102598.85
2017-12-19T20:08:28.910Z,102607.34
2017-12-19T20:11:12.316Z,102603.95
2017-12-19T20:13:51.196Z,102610.32
2017-12-19T20:16:28.254Z,102616.27
2017-12-19T20:19:12.016Z,102612.02
2017-12-19T20:21:47.801Z,102612.02
2017-12-19T20:24:20.332Z,102617.55
2017-12-19T20:26:56.444Z,102622.64
2017-12-19T20:29:29.606Z,102620.52
2017-12-19T20:32:01.364Z,102623.06
2017-12-19T20:34:33.572Z,102618.81
2017-12-19T20:37:12.163Z,102625.19
2017-12-19T20:39:47.290Z,102623.06
2017-12-19T20:42:18.256Z,102618.39
2017-12-19T20:44:50.795Z,102616.69
2017-12-19T20:47:22.800Z,102618.39
2017-12-19T20:49:53.483Z,102617.12
2017-12-19T20:52:31.562Z,102616.69
2017-12-19T20:55:11.073Z,102622.64
2017-12-19T20:57:44.255Z,102626.46
2017-12-19T21:00:18.161Z,102628.59
2017-12-19T21:02:51.433Z,102622.64
2017-12-19T21:05:28.173Z,102623.48
2017-12-19T21:08:01.476Z,102618.39
2017-12-19T21:10:36.607Z,102620.09
2017-12-19T21:13:12.399Z,102614.14
2017-12-19T21:15:45.349Z,102631.56
2017-12-19T21:18:18.613Z,102631.14
2017-12-19T21:20:52.957Z,102627.73
2017-12-19T21:23:28.252Z,102624.77
2017-12-19T21:26:02.765Z,102630.71
2017-12-19T21:28:35.743Z,102631.98
2017-12-19T21:31:10.937Z,102632.84
2017-12-19T21:33:46.204Z,102628.16
2017-12-19T21:36:22.819Z,102634.53
2017-12-19T21:39:00.467Z,102632.41
2017-12-19T21:41:37.834Z,102633.69
2017-12-19T21:44:11.765Z,102636.23
2017-12-19T21:46:41.592Z,102643.87
2017-12-19T21:49:11.439Z,102647.28
2017-12-19T21:51:41.231Z,102640.48
2017-12-19T21:54:11.024Z,102639.63
2017-12-19T21:56:40.852Z,102637.51
2017-12-19T21:59:10.642Z,102640.91
2017-12-19T22:01:40.480Z,102643.03
2017-12-19T22:04:10.076Z,102641.33
2017-12-19T22:06:39.916Z,102642.60
2017-12-19T22:09:09.723Z,102645.58
2017-12-19T22:11:39.564Z,102639.20
2017-12-19T22:14:09.421Z,102646.85
2017-12-19T22:16:39.286Z,102646.43
2017-12-19T22:19:09.111Z,102645.58
2017-12-19T22:21:38.948Z,102646.00
2017-12-19T22:24:08.557Z,102645.58
2017-12-19T22:26:43.281Z,102644.30
2017-12-19T22:29:13.974Z,102645.16
2017-12-19T22:31:43.837Z,102645.16
2017-12-19T22:34:13.718Z,102653.23
2017-12-19T22:36:43.524Z,102646.00
2017-12-19T22:39:13.374Z,102646.85
2017-12-19T22:41:43.212Z,102648.55
2017-12-19T22:44:13.006Z,102640.48
2017-12-19T22:46:42.829Z,102641.75
2017-12-19T22:49:12.693Z,102641.33
2017-12-19T22:51:42.479Z,102640.91
2017-12-19T22:54:12.310Z,102647.27
2017-12-19T22:56:42.138Z,102645.58
2017-12-19T22:59:11.924Z,102648.13
2017-12-19T23:01:42.728Z,102646.42
2017-12-19T23:04:12.580Z,102645.15
2017-12-19T23:06:42.395Z,102638.78
2017-12-19T23:09:12.244Z,102645.58
2017-12-19T23:11:42.067Z,102640.91
2017-12-19T23:14:11.896Z,102641.33
2017-12-19T23:16:41.751Z,102643.03
2017-12-19T23:19:11.535Z,102643.03
2017-12-19T23:21:41.364Z,102632.83
2017-12-19T23:24:11.183Z,102630.71
2017-12-19T23:26:41.001Z,102635.38
2017-12-19T23:29:10.848Z,102629.86
2017-12-19T23:31:40.680Z,102628.16
2017-12-19T23:34:10.476Z,102629.86
2017-12-19T23:36:40.298Z,102630.28
2017-12-19T23:39:10.137Z,102632.41
2017-12-19T23:41:39.989Z,102632.41
2017-12-19T23:44:09.827Z,102630.71
2017-12-19T23:46:39.615Z,102623.06
2017-12-19T23:49:09.403Z,102621.36
2017-12-19T23:51:39.238Z,102622.21
2017-12-19T23:54:09.041Z,102621.79
2017-12-19T23:56:38.879Z,102618.39
2017-12-19T23:59:08.661Z,102618.81
